createdAt,value
2018-03-23T00:00:04.092Z,6.437376
2018-03-23T00:00:16.222Z,8.04672
2018-03-23T00:00:28.346Z,8.04672
2018-03-23T00:00:40.492Z,9.656064
2018-03-23T00:00:52.635Z,9.656064
2018-03-23T00:01:04.800Z,6.437376
2018-03-23T00:01:16.987Z,6.437376
2018-03-23T00:01:29.129Z,6.437376
2018-03-23T00:01:41.265Z,6.437376
2018-03-23T00:01:53.409Z,8.04672
2018-03-23T00:02:05.583Z,3.218688
2018-03-23T00:02:17.736Z,3.218688
2018-03-23T00:02:29.874Z,6.437376
2018-03-23T00:02:42.012Z,8.04672
2018-03-23T00:02:54.180Z,8.04672
2018-03-23T00:03:06.319Z,6.437376
2018-03-23T00:03:18.465Z,6.437376
2018-03-23T00:03:30.619Z,8.04672
2018-03-23T00:03:42.756Z,8.04672
2018-03-23T00:03:54.892Z,8.04672
2018-03-23T00:04:07.040Z,8.04672
2018-03-23T00:04:19.163Z,8.04672
2018-03-23T00:04:31.332Z,8.04672
2018-03-23T00:04:43.465Z,9.656064
2018-03-23T00:04:55.645Z,11.265408
2018-03-23T00:05:07.771Z,11.265408
2018-03-23T00:05:19.889Z,11.265408
2018-03-23T00:05:32.022Z,11.265408
2018-03-23T00:05:44.178Z,11.265408
2018-03-23T00:05:56.311Z,11.265408
2018-03-23T00:06:08.477Z,8.04672
2018-03-23T00:06:20.614Z,8.04672
2018-03-23T00:06:32.762Z,8.04672
2018-03-23T00:06:44.891Z,8.04672
2018-03-23T00:06:57.051Z,8.04672
2018-03-23T00:07:09.237Z,6.437376
2018-03-23T00:07:21.425Z,6.437376
2018-03-23T00:07:33.562Z,6.437376
2018-03-23T00:07:45.740Z,6.437376
2018-03-23T00:07:57.945Z,8.04672
2018-03-23T00:08:10.179Z,9.656064
2018-03-23T00:08:22.311Z,9.656064
2018-03-23T00:08:34.466Z,9.656064
2018-03-23T00:08:46.603Z,9.656064
2018-03-23T00:08:58.735Z,9.656064
2018-03-23T00:09:10.889Z,3.218688
2018-03-23T00:09:23.044Z,6.437376
2018-03-23T00:09:35.225Z,8.04672
2018-03-23T00:09:47.406Z,8.04672
2018-03-23T00:09:59.548Z,8.04672
2018-03-23T00:10:11.746Z,8.04672
2018-03-23T00:10:23.883Z,8.04672
2018-03-23T00:10:36.033Z,8.04672
2018-03-23T00:10:48.241Z,8.04672
2018-03-23T00:11:00.365Z,8.04672
2018-03-23T00:11:12.514Z,4.828032
2018-03-23T00:11:24.843Z,4.828032
2018-03-23T00:11:36.984Z,4.828032
2018-03-23T00:11:49.124Z,4.828032
2018-03-23T00:12:01.280Z,4.828032
2018-03-23T00:12:13.450Z,6.437376
2018-03-23T00:12:25.588Z,6.437376
2018-03-23T00:12:37.742Z,6.437376
2018-03-23T00:12:50.106Z,6.437376
2018-03-23T00:13:02.254Z,6.437376
2018-03-23T00:13:14.378Z,3.218688
2018-03-23T00:13:26.504Z,6.437376
2018-03-23T00:13:38.661Z,6.437376
2018-03-23T00:13:50.803Z,6.437376
2018-03-23T00:14:02.947Z,6.437376
2018-03-23T00:14:15.075Z,3.218688
2018-03-23T00:14:27.213Z,3.218688
2018-03-23T00:14:39.349Z,3.218688
2018-03-23T00:14:51.480Z,3.218688
2018-03-23T00:15:03.663Z,3.218688
2018-03-23T00:15:15.796Z,3.218688
2018-03-23T00:15:27.972Z,6.437376
2018-03-23T00:15:40.118Z,6.437376
2018-03-23T00:15:52.278Z,6.437376
2018-03-23T00:16:04.460Z,3.218688
2018-03-23T00:16:16.752Z,4.828032
2018-03-23T00:16:28.915Z,4.828032
2018-03-23T00:16:41.059Z,4.828032
2018-03-23T00:16:53.194Z,6.437376
2018-03-23T00:17:05.357Z,3.218688
2018-03-23T00:17:17.548Z,3.218688
2018-03-23T00:17:29.682Z,3.218688
2018-03-23T00:17:41.822Z,3.218688
2018-03-23T00:17:53.965Z,3.218688
2018-03-23T00:18:06.105Z,1.609344
2018-03-23T00:18:18.233Z,1.609344
2018-03-23T00:18:30.379Z,6.437376
2018-03-23T00:18:42.519Z,6.437376
2018-03-23T00:18:54.646Z,6.437376
2018-03-23T00:19:06.854Z,4.828032
2018-03-23T00:19:19.210Z,6.437376
2018-03-23T00:19:31.365Z,6.437376
2018-03-23T00:19:43.495Z,6.437376
2018-03-23T00:19:55.625Z,6.437376
2018-03-23T00:20:07.770Z,1.609344
2018-03-23T00:20:19.909Z,1.609344
2018-03-23T00:20:32.090Z,1.609344
2018-03-23T00:20:44.229Z,3.218688
2018-03-23T00:20:56.521Z,3.218688
2018-03-23T00:21:08.673Z,1.609344
2018-03-23T00:21:20.829Z,1.609344
2018-03-23T00:21:33.015Z,1.609344
2018-03-23T00:21:45.179Z,1.609344
2018-03-23T00:21:57.310Z,1.609344
2018-03-23T00:22:09.432Z,1.609344
2018-03-23T00:22:21.563Z,1.609344
2018-03-23T00:22:33.686Z,3.218688
2018-03-23T00:22:45.838Z,4.828032
2018-03-23T00:22:57.983Z,4.828032
2018-03-23T00:23:10.119Z,3.218688
2018-03-23T00:23:22.250Z,4.828032
2018-03-23T00:23:34.370Z,4.828032
2018-03-23T00:23:46.519Z,6.437376
2018-03-23T00:23:58.658Z,6.437376
2018-03-23T00:24:10.796Z,1.609344
2018-03-23T00:24:22.990Z,3.218688
2018-03-23T00:24:35.166Z,4.828032
2018-03-23T00:24:47.296Z,4.828032
2018-03-23T00:24:59.424Z,4.828032
2018-03-23T00:25:11.561Z,3.218688
2018-03-23T00:25:23.696Z,3.218688
2018-03-23T00:25:35.830Z,3.218688
2018-03-23T00:25:47.964Z,3.218688
2018-03-23T00:26:00.146Z,6.437376
2018-03-23T00:26:12.285Z,3.218688
2018-03-23T00:26:24.421Z,9.656064
2018-03-23T00:26:36.597Z,9.656064
2018-03-23T00:26:48.750Z,9.656064
2018-03-23T00:27:00.896Z,9.656064
2018-03-23T00:27:13.026Z,6.437376
2018-03-23T00:27:25.153Z,6.437376
2018-03-23T00:27:37.280Z,6.437376
2018-03-23T00:27:49.830Z,6.437376
2018-03-23T00:28:01.969Z,6.437376
2018-03-23T00:28:14.119Z,3.218688
2018-03-23T00:28:26.246Z,4.828032
2018-03-23T00:28:38.381Z,9.656064
2018-03-23T00:28:50.576Z,9.656064
2018-03-23T00:29:02.726Z,9.656064
2018-03-23T00:29:14.871Z,8.04672
2018-03-23T00:29:27.053Z,9.656064
2018-03-23T00:29:39.194Z,11.265408
2018-03-23T00:29:51.340Z,11.265408
2018-03-23T00:30:03.468Z,3.218688
2018-03-23T00:30:15.618Z,3.218688
2018-03-23T00:30:27.762Z,4.828032
2018-03-23T00:30:39.954Z,4.828032
2018-03-23T00:30:52.085Z,4.828032
2018-03-23T00:31:04.207Z,8.04672
2018-03-23T00:31:16.347Z,9.656064
2018-03-23T00:31:28.475Z,9.656064
2018-03-23T00:31:40.607Z,9.656064
2018-03-23T00:31:52.740Z,9.656064
2018-03-23T00:32:04.891Z,3.218688
2018-03-23T00:32:17.179Z,8.04672
2018-03-23T00:32:29.376Z,8.04672
2018-03-23T00:32:41.508Z,9.656064
2018-03-23T00:32:53.668Z,9.656064
2018-03-23T00:33:05.863Z,9.656064
2018-03-23T00:33:17.989Z,9.656064
2018-03-23T00:33:30.140Z,11.265408
2018-03-23T00:33:42.289Z,11.265408
2018-03-23T00:33:54.417Z,11.265408
2018-03-23T00:34:06.591Z,8.04672
2018-03-23T00:34:18.725Z,8.04672
2018-03-23T00:34:30.853Z,8.04672
2018-03-23T00:34:43.031Z,8.04672
2018-03-23T00:34:55.167Z,8.04672
2018-03-23T00:35:07.301Z,3.218688
2018-03-23T00:35:19.425Z,3.218688
2018-03-23T00:35:31.572Z,3.218688
2018-03-23T00:35:43.708Z,4.828032
2018-03-23T00:35:55.861Z,8.04672
2018-03-23T00:36:08.004Z,8.04672
2018-03-23T00:36:20.129Z,8.04672
2018-03-23T00:36:32.260Z,8.04672
2018-03-23T00:36:44.403Z,8.04672
2018-03-23T00:36:56.523Z,8.04672
2018-03-23T00:37:08.722Z,6.437376
2018-03-23T00:37:20.859Z,6.437376
2018-03-23T00:37:33.150Z,6.437376
2018-03-23T00:37:45.302Z,6.437376
2018-03-23T00:37:57.427Z,6.437376
2018-03-23T00:38:09.559Z,3.218688
2018-03-23T00:38:21.700Z,8.04672
2018-03-23T00:38:33.837Z,8.04672
2018-03-23T00:38:46.016Z,8.04672
2018-03-23T00:38:58.141Z,8.04672
2018-03-23T00:39:10.287Z,6.437376
2018-03-23T00:39:22.442Z,6.437376
2018-03-23T00:39:34.572Z,8.04672
2018-03-23T00:39:46.696Z,8.04672
2018-03-23T00:39:58.828Z,8.04672
2018-03-23T00:40:10.996Z,6.437376
2018-03-23T00:40:23.135Z,6.437376
2018-03-23T00:40:35.289Z,11.265408
2018-03-23T00:40:47.470Z,11.265408
2018-03-23T00:40:59.601Z,11.265408
2018-03-23T00:41:11.873Z,6.437376
2018-03-23T00:41:24.017Z,6.437376
2018-03-23T00:41:36.169Z,6.437376
2018-03-23T00:41:48.302Z,6.437376
2018-03-23T00:42:00.458Z,6.437376
2018-03-23T00:42:12.605Z,4.828032
2018-03-23T00:42:24.755Z,6.437376
2018-03-23T00:42:36.882Z,6.437376
2018-03-23T00:42:49.087Z,6.437376
2018-03-23T00:43:01.212Z,6.437376
2018-03-23T00:43:13.346Z,3.218688
2018-03-23T00:43:25.487Z,4.828032
2018-03-23T00:43:37.654Z,4.828032
2018-03-23T00:43:49.806Z,4.828032
2018-03-23T00:44:01.945Z,4.828032
2018-03-23T00:44:14.086Z,3.218688
2018-03-23T00:44:26.357Z,3.218688
2018-03-23T00:44:38.502Z,3.218688
2018-03-23T00:44:50.649Z,3.218688
2018-03-23T00:45:02.788Z,3.218688
2018-03-23T00:45:14.922Z,3.218688
2018-03-23T00:45:27.066Z,3.218688
2018-03-23T00:45:39.209Z,8.04672
2018-03-23T00:45:51.349Z,8.04672
2018-03-23T00:46:03.486Z,6.437376
2018-03-23T00:46:15.658Z,8.04672
2018-03-23T00:46:27.787Z,9.656064
2018-03-23T00:46:40.154Z,12.874752
2018-03-23T00:46:52.282Z,12.874752
2018-03-23T00:47:04.422Z,12.874752
2018-03-23T00:47:16.738Z,12.874752
2018-03-23T00:47:28.878Z,12.874752
2018-03-23T00:47:41.023Z,12.874752
2018-03-23T00:47:53.293Z,12.874752
2018-03-23T00:48:05.425Z,6.437376
2018-03-23T00:48:17.566Z,9.656064
2018-03-23T00:48:29.776Z,9.656064
2018-03-23T00:48:41.913Z,9.656064
2018-03-23T00:48:54.067Z,9.656064
2018-03-23T00:49:06.210Z,9.656064
2018-03-23T00:49:18.340Z,11.265408
2018-03-23T00:49:30.471Z,11.265408
2018-03-23T00:49:42.599Z,11.265408
2018-03-23T00:49:54.730Z,11.265408
2018-03-23T00:50:06.887Z,6.437376
2018-03-23T00:50:19.042Z,12.874752
2018-03-23T00:50:31.185Z,12.874752
2018-03-23T00:50:43.331Z,12.874752
2018-03-23T00:50:55.477Z,12.874752
2018-03-23T00:51:07.640Z,3.218688
2018-03-23T00:51:19.797Z,6.437376
2018-03-23T00:51:31.935Z,8.04672
2018-03-23T00:51:44.080Z,8.04672
2018-03-23T00:51:56.238Z,8.04672
2018-03-23T00:52:08.414Z,3.218688
2018-03-23T00:52:20.551Z,8.04672
2018-03-23T00:52:32.761Z,12.874752
2018-03-23T00:52:44.894Z,12.874752
2018-03-23T00:52:57.116Z,12.874752
2018-03-23T00:53:09.268Z,6.437376
2018-03-23T00:53:21.394Z,9.656064
2018-03-23T00:53:33.557Z,9.656064
2018-03-23T00:53:45.751Z,9.656064
2018-03-23T00:53:57.892Z,9.656064
2018-03-23T00:54:10.027Z,8.04672
2018-03-23T00:54:22.171Z,8.04672
2018-03-23T00:54:34.306Z,8.04672
2018-03-23T00:54:46.499Z,8.04672
2018-03-23T00:54:58.633Z,8.04672
2018-03-23T00:55:10.821Z,1.609344
2018-03-23T00:55:22.973Z,9.656064
2018-03-23T00:55:35.398Z,9.656064
2018-03-23T00:55:47.595Z,9.656064
2018-03-23T00:55:59.746Z,9.656064
2018-03-23T00:56:11.885Z,8.04672
2018-03-23T00:56:24.018Z,9.656064
2018-03-23T00:56:36.157Z,11.265408
2018-03-23T00:56:48.357Z,11.265408
2018-03-23T00:57:00.513Z,14.484096
2018-03-23T00:57:12.692Z,16.09344
2018-03-23T00:57:24.836Z,19.312128
2018-03-23T00:57:37.204Z,19.312128
2018-03-23T00:57:49.362Z,19.312128
2018-03-23T00:58:01.525Z,19.312128
2018-03-23T00:58:13.682Z,9.656064
2018-03-23T00:58:25.828Z,11.265408
2018-03-23T00:58:38.028Z,11.265408
2018-03-23T00:58:50.177Z,14.484096
2018-03-23T00:59:02.300Z,14.484096
2018-03-23T00:59:14.448Z,11.265408
2018-03-23T00:59:26.667Z,11.265408
2018-03-23T00:59:39.091Z,11.265408
2018-03-23T00:59:51.245Z,12.874752
2018-03-23T01:00:03.408Z,12.874752
2018-03-23T01:00:15.576Z,14.484096
2018-03-23T01:00:27.708Z,14.484096
2018-03-23T01:00:39.835Z,14.484096
2018-03-23T01:00:51.982Z,14.484096
2018-03-23T01:01:04.124Z,12.874752
2018-03-23T01:01:16.275Z,12.874752
2018-03-23T01:01:28.406Z,14.484096
2018-03-23T01:01:40.548Z,16.09344
2018-03-23T01:01:52.685Z,16.09344
2018-03-23T01:02:04.839Z,14.484096
2018-03-23T01:02:16.996Z,17.702784
2018-03-23T01:02:29.147Z,17.702784
2018-03-23T01:02:41.279Z,17.702784
2018-03-23T01:02:53.421Z,17.702784
2018-03-23T01:03:05.558Z,11.265408
2018-03-23T01:03:17.756Z,16.09344
2018-03-23T01:03:29.907Z,17.702784
2018-03-23T01:03:42.062Z,17.702784
2018-03-23T01:03:54.211Z,17.702784
2018-03-23T01:04:06.345Z,9.656064
2018-03-23T01:04:18.493Z,11.265408
2018-03-23T01:04:30.648Z,12.874752
2018-03-23T01:04:42.785Z,14.484096
2018-03-23T01:04:54.925Z,14.484096
2018-03-23T01:05:07.073Z,16.09344
2018-03-23T01:05:19.228Z,16.09344
2018-03-23T01:05:31.381Z,16.09344
2018-03-23T01:05:43.524Z,16.09344
2018-03-23T01:05:55.664Z,16.09344
2018-03-23T01:06:07.796Z,8.04672
2018-03-23T01:06:19.928Z,9.656064
2018-03-23T01:06:32.332Z,17.702784
2018-03-23T01:06:44.590Z,17.702784
2018-03-23T01:06:56.732Z,17.702784
2018-03-23T01:07:08.890Z,11.265408
2018-03-23T01:07:21.022Z,12.874752
2018-03-23T01:07:33.152Z,12.874752
2018-03-23T01:07:45.298Z,12.874752
2018-03-23T01:07:57.455Z,12.874752
2018-03-23T01:08:09.610Z,14.484096
2018-03-23T01:08:21.816Z,14.484096
2018-03-23T01:08:34.001Z,14.484096
2018-03-23T01:08:46.151Z,14.484096
2018-03-23T01:08:58.305Z,14.484096
2018-03-23T01:09:10.452Z,12.874752
2018-03-23T01:09:22.600Z,12.874752
2018-03-23T01:09:34.746Z,12.874752
2018-03-23T01:09:46.893Z,12.874752
2018-03-23T01:09:59.036Z,12.874752
2018-03-23T01:10:11.186Z,12.874752
2018-03-23T01:10:23.331Z,12.874752
2018-03-23T01:10:35.491Z,12.874752
2018-03-23T01:10:47.634Z,12.874752
2018-03-23T01:10:59.799Z,14.484096
2018-03-23T01:11:11.931Z,12.874752
2018-03-23T01:11:24.267Z,14.484096
2018-03-23T01:11:36.411Z,14.484096
2018-03-23T01:11:48.564Z,14.484096
2018-03-23T01:12:00.701Z,14.484096
2018-03-23T01:12:12.842Z,11.265408
2018-03-23T01:12:25.032Z,11.265408
2018-03-23T01:12:37.168Z,11.265408
2018-03-23T01:12:49.454Z,11.265408
2018-03-23T01:13:01.593Z,11.265408
2018-03-23T01:13:13.731Z,9.656064
2018-03-23T01:13:25.868Z,11.265408
2018-03-23T01:13:38.071Z,12.874752
2018-03-23T01:13:50.458Z,12.874752
2018-03-23T01:14:02.609Z,12.874752
2018-03-23T01:14:14.763Z,8.04672
2018-03-23T01:14:26.962Z,8.04672
2018-03-23T01:14:39.550Z,8.04672
2018-03-23T01:14:51.691Z,8.04672
2018-03-23T01:15:03.822Z,6.437376
2018-03-23T01:15:15.965Z,8.04672
2018-03-23T01:15:28.118Z,9.656064
2018-03-23T01:15:40.257Z,11.265408
2018-03-23T01:15:52.413Z,11.265408
2018-03-23T01:16:04.542Z,6.437376
2018-03-23T01:16:16.676Z,8.04672
2018-03-23T01:16:28.830Z,8.04672
2018-03-23T01:16:40.978Z,8.04672
2018-03-23T01:16:53.120Z,8.04672
2018-03-23T01:17:05.488Z,12.874752
2018-03-23T01:17:17.650Z,12.874752
2018-03-23T01:17:29.796Z,14.484096
2018-03-23T01:17:41.929Z,14.484096
2018-03-23T01:17:54.083Z,17.702784
2018-03-23T01:18:06.218Z,16.09344
2018-03-23T01:18:18.379Z,16.09344
2018-03-23T01:18:30.515Z,16.09344
2018-03-23T01:18:42.656Z,16.09344
2018-03-23T01:18:54.842Z,16.09344
2018-03-23T01:19:06.980Z,11.265408
2018-03-23T01:19:19.110Z,11.265408
2018-03-23T01:19:31.296Z,11.265408
2018-03-23T01:19:43.430Z,11.265408
2018-03-23T01:19:55.584Z,11.265408
2018-03-23T01:20:07.734Z,6.437376
2018-03-23T01:20:19.869Z,8.04672
2018-03-23T01:20:32.059Z,12.874752
2018-03-23T01:20:44.244Z,12.874752
2018-03-23T01:20:56.376Z,12.874752
2018-03-23T01:21:08.502Z,9.656064
2018-03-23T01:21:20.641Z,9.656064
2018-03-23T01:21:32.788Z,9.656064
2018-03-23T01:21:44.959Z,9.656064
2018-03-23T01:21:57.219Z,11.265408
2018-03-23T01:22:09.424Z,11.265408
2018-03-23T01:22:21.563Z,12.874752
2018-03-23T01:22:33.795Z,14.484096
2018-03-23T01:22:45.931Z,14.484096
2018-03-23T01:22:58.072Z,14.484096
2018-03-23T01:23:10.235Z,11.265408
2018-03-23T01:23:22.370Z,12.874752
2018-03-23T01:23:34.526Z,12.874752
2018-03-23T01:23:46.667Z,12.874752
2018-03-23T01:23:58.805Z,12.874752
2018-03-23T01:24:11.004Z,9.656064
2018-03-23T01:24:23.201Z,9.656064
2018-03-23T01:24:35.340Z,11.265408
2018-03-23T01:24:47.486Z,11.265408
2018-03-23T01:24:59.615Z,11.265408
2018-03-23T01:25:11.772Z,6.437376
2018-03-23T01:25:23.909Z,8.04672
2018-03-23T01:25:36.057Z,8.04672
2018-03-23T01:25:48.208Z,8.04672
2018-03-23T01:26:00.355Z,8.04672
2018-03-23T01:26:12.500Z,9.656064
2018-03-23T01:26:24.651Z,11.265408
2018-03-23T01:26:36.788Z,11.265408
2018-03-23T01:26:48.948Z,11.265408
2018-03-23T01:27:01.146Z,12.874752
2018-03-23T01:27:13.277Z,14.484096
2018-03-23T01:27:25.423Z,17.702784
2018-03-23T01:27:37.552Z,17.702784
2018-03-23T01:27:50.005Z,17.702784
2018-03-23T01:28:02.155Z,17.702784
2018-03-23T01:28:14.292Z,11.265408
2018-03-23T01:28:26.486Z,11.265408
2018-03-23T01:28:38.664Z,11.265408
2018-03-23T01:28:50.810Z,11.265408
2018-03-23T01:29:02.936Z,11.265408
2018-03-23T01:29:15.067Z,9.656064
2018-03-23T01:29:27.192Z,9.656064
2018-03-23T01:29:39.397Z,9.656064
2018-03-23T01:29:51.548Z,9.656064
2018-03-23T01:30:03.679Z,9.656064
2018-03-23T01:30:15.879Z,11.265408
2018-03-23T01:30:28.013Z,11.265408
2018-03-23T01:30:40.156Z,11.265408
2018-03-23T01:30:52.299Z,11.265408
2018-03-23T01:31:04.474Z,9.656064
2018-03-23T01:31:16.627Z,9.656064
2018-03-23T01:31:28.789Z,9.656064
2018-03-23T01:31:41.014Z,9.656064
2018-03-23T01:31:53.166Z,9.656064
2018-03-23T01:32:05.302Z,11.265408
2018-03-23T01:32:17.538Z,11.265408
2018-03-23T01:32:29.679Z,12.874752
2018-03-23T01:32:41.812Z,12.874752
2018-03-23T01:32:53.944Z,12.874752
2018-03-23T01:33:06.101Z,8.04672
2018-03-23T01:33:18.246Z,11.265408
2018-03-23T01:33:30.394Z,11.265408
2018-03-23T01:33:42.570Z,11.265408
2018-03-23T01:33:54.706Z,11.265408
2018-03-23T01:34:06.848Z,11.265408
2018-03-23T01:34:18.998Z,11.265408
2018-03-23T01:34:31.150Z,11.265408
2018-03-23T01:34:43.318Z,11.265408
2018-03-23T01:34:55.473Z,11.265408
2018-03-23T01:35:07.623Z,8.04672
2018-03-23T01:35:19.796Z,8.04672
2018-03-23T01:35:31.931Z,8.04672
2018-03-23T01:35:44.059Z,8.04672
2018-03-23T01:35:56.265Z,8.04672
2018-03-23T01:36:08.396Z,6.437376
2018-03-23T01:36:20.541Z,6.437376
2018-03-23T01:36:32.848Z,6.437376
2018-03-23T01:36:45.169Z,6.437376
2018-03-23T01:36:57.318Z,8.04672
2018-03-23T01:37:09.456Z,8.04672
2018-03-23T01:37:21.644Z,8.04672
2018-03-23T01:37:33.987Z,11.265408
2018-03-23T01:37:46.141Z,11.265408
2018-03-23T01:37:58.286Z,11.265408
2018-03-23T01:38:10.421Z,8.04672
2018-03-23T01:38:22.607Z,11.265408
2018-03-23T01:38:34.746Z,12.874752
2018-03-23T01:38:46.909Z,12.874752
2018-03-23T01:38:59.042Z,12.874752
2018-03-23T01:39:11.200Z,12.874752
2018-03-23T01:39:23.504Z,12.874752
2018-03-23T01:39:35.657Z,12.874752
2018-03-23T01:39:47.786Z,12.874752
2018-03-23T01:39:59.983Z,16.09344
2018-03-23T01:40:12.134Z,14.484096
2018-03-23T01:40:24.275Z,14.484096
2018-03-23T01:40:36.438Z,14.484096
2018-03-23T01:40:48.596Z,14.484096
2018-03-23T01:41:00.827Z,14.484096
2018-03-23T01:41:13.150Z,11.265408
2018-03-23T01:41:25.293Z,11.265408
2018-03-23T01:41:37.447Z,11.265408
2018-03-23T01:41:49.581Z,11.265408
2018-03-23T01:42:01.728Z,11.265408
2018-03-23T01:42:13.868Z,6.437376
2018-03-23T01:42:26.012Z,9.656064
2018-03-23T01:42:38.142Z,12.874752
2018-03-23T01:42:50.289Z,12.874752
2018-03-23T01:43:02.438Z,12.874752
2018-03-23T01:43:14.577Z,8.04672
2018-03-23T01:43:26.720Z,8.04672
2018-03-23T01:43:38.908Z,8.04672
2018-03-23T01:43:51.099Z,8.04672
2018-03-23T01:44:03.249Z,6.437376
2018-03-23T01:44:15.389Z,6.437376
2018-03-23T01:44:27.532Z,6.437376
2018-03-23T01:44:39.676Z,6.437376
2018-03-23T01:44:51.815Z,8.04672
2018-03-23T01:45:03.954Z,6.437376
2018-03-23T01:45:16.099Z,6.437376
2018-03-23T01:45:28.234Z,6.437376
2018-03-23T01:45:40.371Z,8.04672
2018-03-23T01:45:52.510Z,9.656064
2018-03-23T01:46:04.730Z,6.437376
2018-03-23T01:46:16.898Z,6.437376
2018-03-23T01:46:29.057Z,6.437376
2018-03-23T01:46:41.214Z,9.656064
2018-03-23T01:46:53.350Z,11.265408
2018-03-23T01:47:05.498Z,11.265408
2018-03-23T01:47:17.640Z,12.874752
2018-03-23T01:47:29.902Z,12.874752
2018-03-23T01:47:42.037Z,12.874752
2018-03-23T01:47:54.265Z,12.874752
2018-03-23T01:48:06.426Z,8.04672
2018-03-23T01:48:18.575Z,11.265408
2018-03-23T01:48:30.721Z,12.874752
2018-03-23T01:48:42.863Z,12.874752
2018-03-23T01:48:55.011Z,12.874752
2018-03-23T01:49:07.166Z,6.437376
2018-03-23T01:49:19.306Z,6.437376
2018-03-23T01:49:31.451Z,6.437376
2018-03-23T01:49:43.599Z,6.437376
2018-03-23T01:49:55.743Z,6.437376
2018-03-23T01:50:07.907Z,3.218688
2018-03-23T01:50:20.134Z,3.218688
2018-03-23T01:50:32.285Z,11.265408
2018-03-23T01:50:44.423Z,12.874752
2018-03-23T01:50:56.576Z,12.874752
2018-03-23T01:51:08.726Z,6.437376
2018-03-23T01:51:20.878Z,6.437376
2018-03-23T01:51:33.020Z,9.656064
2018-03-23T01:51:45.164Z,9.656064
2018-03-23T01:51:57.302Z,9.656064
2018-03-23T01:52:09.460Z,6.437376
2018-03-23T01:52:21.610Z,8.04672
2018-03-23T01:52:33.765Z,9.656064
2018-03-23T01:52:45.900Z,11.265408
2018-03-23T01:52:58.156Z,11.265408
2018-03-23T01:53:10.685Z,6.437376
2018-03-23T01:53:22.824Z,6.437376
2018-03-23T01:53:34.956Z,6.437376
2018-03-23T01:53:47.117Z,14.484096
2018-03-23T01:53:59.244Z,14.484096
2018-03-23T01:54:11.382Z,8.04672
2018-03-23T01:54:23.531Z,9.656064
2018-03-23T01:54:35.677Z,11.265408
2018-03-23T01:54:47.824Z,11.265408
2018-03-23T01:55:00.004Z,12.874752
2018-03-23T01:55:12.150Z,8.04672
2018-03-23T01:55:24.322Z,8.04672
2018-03-23T01:55:36.509Z,12.874752
2018-03-23T01:55:48.650Z,12.874752
2018-03-23T01:56:00.801Z,12.874752
2018-03-23T01:56:12.966Z,11.265408
2018-03-23T01:56:25.107Z,11.265408
2018-03-23T01:56:37.247Z,11.265408
2018-03-23T01:56:49.388Z,11.265408
2018-03-23T01:57:01.518Z,11.265408
2018-03-23T01:57:13.837Z,8.04672
2018-03-23T01:57:26.132Z,8.04672
2018-03-23T01:57:38.267Z,9.656064
2018-03-23T01:57:50.412Z,9.656064
2018-03-23T01:58:02.652Z,9.656064
2018-03-23T01:58:14.884Z,8.04672
2018-03-23T01:58:27.011Z,8.04672
2018-03-23T01:58:39.145Z,8.04672
2018-03-23T01:58:51.339Z,8.04672
2018-03-23T01:59:03.558Z,3.218688
2018-03-23T01:59:15.709Z,9.656064
2018-03-23T01:59:27.918Z,12.874752
2018-03-23T01:59:40.080Z,12.874752
2018-03-23T01:59:52.214Z,12.874752
2018-03-23T02:00:04.358Z,8.04672
2018-03-23T02:00:16.515Z,11.265408
2018-03-23T02:00:28.658Z,11.265408
2018-03-23T02:00:40.804Z,11.265408
2018-03-23T02:00:53.093Z,11.265408
2018-03-23T02:01:05.231Z,9.656064
2018-03-23T02:01:17.367Z,9.656064
2018-03-23T02:01:29.573Z,9.656064
2018-03-23T02:01:41.707Z,9.656064
2018-03-23T02:01:53.845Z,9.656064
2018-03-23T02:02:05.989Z,6.437376
2018-03-23T02:02:18.138Z,6.437376
2018-03-23T02:02:30.329Z,6.437376
2018-03-23T02:02:42.468Z,6.437376
2018-03-23T02:02:54.599Z,6.437376
2018-03-23T02:03:06.731Z,6.437376
2018-03-23T02:03:19.064Z,9.656064
2018-03-23T02:03:31.221Z,9.656064
2018-03-23T02:03:43.478Z,9.656064
2018-03-23T02:03:55.642Z,9.656064
2018-03-23T02:04:07.800Z,6.437376
2018-03-23T02:04:19.989Z,6.437376
2018-03-23T02:04:32.224Z,6.437376
2018-03-23T02:04:44.368Z,8.04672
2018-03-23T02:04:56.502Z,12.874752
2018-03-23T02:05:08.653Z,11.265408
2018-03-23T02:05:20.793Z,11.265408
2018-03-23T02:05:32.939Z,11.265408
2018-03-23T02:05:45.376Z,11.265408
2018-03-23T02:05:57.533Z,11.265408
2018-03-23T02:06:09.676Z,9.656064
2018-03-23T02:06:21.806Z,11.265408
2018-03-23T02:06:33.955Z,11.265408
2018-03-23T02:06:46.106Z,11.265408
2018-03-23T02:06:58.248Z,11.265408
2018-03-23T02:07:10.397Z,8.04672
2018-03-23T02:07:22.537Z,8.04672
2018-03-23T02:07:34.732Z,8.04672
2018-03-23T02:07:46.872Z,8.04672
2018-03-23T02:07:59.026Z,8.04672
2018-03-23T02:08:11.178Z,3.218688
2018-03-23T02:08:23.356Z,3.218688
2018-03-23T02:08:35.486Z,8.04672
2018-03-23T02:08:47.618Z,9.656064
2018-03-23T02:08:59.764Z,9.656064
2018-03-23T02:09:11.899Z,9.656064
2018-03-23T02:09:24.090Z,14.484096
2018-03-23T02:09:36.218Z,14.484096
2018-03-23T02:09:48.397Z,14.484096
2018-03-23T02:10:00.536Z,14.484096
2018-03-23T02:10:12.668Z,8.04672
2018-03-23T02:10:24.892Z,8.04672
2018-03-23T02:10:37.028Z,8.04672
2018-03-23T02:10:49.193Z,8.04672
2018-03-23T02:11:01.315Z,8.04672
2018-03-23T02:11:13.501Z,4.828032
2018-03-23T02:11:25.731Z,4.828032
2018-03-23T02:11:37.858Z,6.437376
2018-03-23T02:11:50.034Z,8.04672
2018-03-23T02:12:02.166Z,8.04672
2018-03-23T02:12:14.308Z,6.437376
2018-03-23T02:12:26.435Z,6.437376
2018-03-23T02:12:38.559Z,6.437376
2018-03-23T02:12:50.895Z,6.437376
2018-03-23T02:13:03.025Z,6.437376
2018-03-23T02:13:15.426Z,3.218688
2018-03-23T02:13:27.571Z,6.437376
2018-03-23T02:13:39.710Z,6.437376
2018-03-23T02:13:51.861Z,6.437376
2018-03-23T02:14:04.043Z,3.218688
2018-03-23T02:14:16.162Z,6.437376
2018-03-23T02:14:28.291Z,8.04672
2018-03-23T02:14:40.426Z,8.04672
2018-03-23T02:14:52.570Z,8.04672
2018-03-23T02:15:04.744Z,3.218688
2018-03-23T02:15:16.872Z,6.437376
2018-03-23T02:15:29.036Z,6.437376
2018-03-23T02:15:41.166Z,6.437376
2018-03-23T02:15:53.294Z,6.437376
2018-03-23T02:16:05.431Z,1.609344
2018-03-23T02:16:17.581Z,1.609344
2018-03-23T02:16:29.709Z,1.609344
2018-03-23T02:16:41.897Z,3.218688
2018-03-23T02:16:54.029Z,3.218688
2018-03-23T02:17:06.160Z,1.609344
2018-03-23T02:17:18.288Z,4.828032
2018-03-23T02:17:30.476Z,4.828032
2018-03-23T02:17:42.792Z,4.828032
2018-03-23T02:17:54.985Z,4.828032
2018-03-23T02:18:07.121Z,6.437376
2018-03-23T02:18:19.249Z,6.437376
2018-03-23T02:18:31.438Z,6.437376
2018-03-23T02:18:43.592Z,6.437376
2018-03-23T02:18:55.733Z,6.437376
2018-03-23T02:19:07.871Z,4.828032
2018-03-23T02:19:19.990Z,4.828032
2018-03-23T02:19:32.152Z,4.828032
2018-03-23T02:19:44.276Z,6.437376
2018-03-23T02:19:56.409Z,6.437376
2018-03-23T02:20:08.544Z,9.656064
2018-03-23T02:20:20.671Z,9.656064
2018-03-23T02:20:32.798Z,9.656064
2018-03-23T02:20:44.912Z,9.656064
2018-03-23T02:20:57.049Z,9.656064
2018-03-23T02:21:09.194Z,6.437376
2018-03-23T02:21:21.357Z,6.437376
2018-03-23T02:21:33.694Z,8.04672
2018-03-23T02:21:46.210Z,8.04672
2018-03-23T02:21:58.327Z,8.04672
2018-03-23T02:22:10.471Z,9.656064